sensor_id;sensor_type;location;lat;lon;timestamp;P1;durP1;ratioP1;P2;durP2;ratioP2
16039;SDS011;8124;48.634;8.120;2022-12-07T00:02:29;48.70;;;41.35;;
16039;SDS011;8124;48.634;8.120;2022-12-07T00:07:40;45.55;;;40.00;;
16039;SDS011;8124;48.634;8.120;2022-12-07T00:12:43;47.88;;;41.03;;
16039;SDS011;8124;48.634;8.120;2022-12-07T00:17:46;49.75;;;40.58;;
16039;SDS011;8124;48.634;8.120;2022-12-07T00:22:50;49.15;;;40.60;;
16039;SDS011;8124;48.634;8.120;2022-12-07T00:27:53;47.42;;;40.55;;
16039;SDS011;8124;48.634;8.120;2022-12-07T00:32:57;47.53;;;40.35;;
16039;SDS011;8124;48.634;8.120;2022-12-07T00:38:02;46.22;;;40.20;;
16039;SDS011;8124;48.634;8.120;2022-12-07T00:43:04;46.42;;;39.97;;
16039;SDS011;8124;48.634;8.120;2022-12-07T00:48:07;47.28;;;40.95;;
16039;SDS011;8124;48.634;8.120;2022-12-07T00:53:12;47.72;;;41.15;;
16039;SDS011;8124;48.634;8.120;2022-12-07T00:58:15;45.28;;;39.15;;
16039;SDS011;8124;48.634;8.120;2022-12-07T01:03:18;45.10;;;38.95;;
16039;SDS011;8124;48.634;8.120;2022-12-07T01:08:22;47.42;;;40.85;;
16039;SDS011;8124;48.634;8.120;2022-12-07T01:13:27;45.28;;;40.35;;
16039;SDS011;8124;48.634;8.120;2022-12-07T01:18:30;44.90;;;39.80;;
16039;SDS011;8124;48.634;8.120;2022-12-07T01:23:37;46.83;;;40.05;;
16039;SDS011;8124;48.634;8.120;2022-12-07T01:28:41;46.33;;;39.95;;
16039;SDS011;8124;48.634;8.120;2022-12-07T01:33:45;45.30;;;39.30;;
16039;SDS011;8124;48.634;8.120;2022-12-07T01:38:51;44.78;;;38.85;;
16039;SDS011;8124;48.634;8.120;2022-12-07T01:44:07;48.17;;;40.47;;
16039;SDS011;8124;48.634;8.120;2022-12-07T01:49:17;46.17;;;40.15;;
16039;SDS011;8124;48.634;8.120;2022-12-07T01:54:26;48.42;;;39.42;;
16039;SDS011;8124;48.634;8.120;2022-12-07T01:59:29;45.75;;;39.22;;
16039;SDS011;8124;48.634;8.120;2022-12-07T02:04:32;44.78;;;39.55;;
16039;SDS011;8124;48.634;8.120;2022-12-07T02:09:37;44.40;;;38.60;;
16039;SDS011;8124;48.634;8.120;2022-12-07T02:14:40;46.03;;;39.13;;
16039;SDS011;8124;48.634;8.120;2022-12-07T02:25:27;46.13;;;39.85;;
16039;SDS011;8124;48.634;8.120;2022-12-07T02:30:45;43.15;;;37.75;;
16039;SDS011;8124;48.634;8.120;2022-12-07T02:35:53;44.55;;;38.67;;
16039;SDS011;8124;48.634;8.120;2022-12-07T02:41:02;46.08;;;39.42;;
16039;SDS011;8124;48.634;8.120;2022-12-07T02:46:11;45.95;;;39.50;;
16039;SDS011;8124;48.634;8.120;2022-12-07T02:51:18;48.88;;;39.78;;
16039;SDS011;8124;48.634;8.120;2022-12-07T02:56:27;45.40;;;39.03;;
16039;SDS011;8124;48.634;8.120;2022-12-07T03:01:48;47.35;;;40.30;;
16039;SDS011;8124;48.634;8.120;2022-12-07T03:07:00;47.17;;;40.17;;
16039;SDS011;8124;48.634;8.120;2022-12-07T03:12:09;45.53;;;38.75;;
16039;SDS011;8124;48.634;8.120;2022-12-07T03:17:17;43.47;;;38.08;;
16039;SDS011;8124;48.634;8.120;2022-12-07T03:22:23;44.63;;;37.90;;
16039;SDS011;8124;48.634;8.120;2022-12-07T03:27:31;43.30;;;38.33;;
16039;SDS011;8124;48.634;8.120;2022-12-07T03:32:40;42.08;;;37.47;;
16039;SDS011;8124;48.634;8.120;2022-12-07T03:37:48;45.60;;;39.00;;
16039;SDS011;8124;48.634;8.120;2022-12-07T03:42:56;43.20;;;38.45;;
16039;SDS011;8124;48.634;8.120;2022-12-07T03:48:05;42.63;;;37.67;;
16039;SDS011;8124;48.634;8.120;2022-12-07T03:53:13;44.55;;;38.95;;
16039;SDS011;8124;48.634;8.120;2022-12-07T03:58:20;44.80;;;38.78;;
16039;SDS011;8124;48.634;8.120;2022-12-07T04:03:26;44.08;;;38.78;;
16039;SDS011;8124;48.634;8.120;2022-12-07T04:08:29;46.60;;;41.45;;
16039;SDS011;8124;48.634;8.120;2022-12-07T04:13:32;48.63;;;38.17;;
16039;SDS011;8124;48.634;8.120;2022-12-07T04:18:56;44.25;;;38.00;;
16039;SDS011;8124;48.634;8.120;2022-12-07T04:23:59;42.45;;;37.63;;
16039;SDS011;8124;48.634;8.120;2022-12-07T04:29:02;42.50;;;37.88;;
16039;SDS011;8124;48.634;8.120;2022-12-07T04:34:09;44.78;;;38.65;;
16039;SDS011;8124;48.634;8.120;2022-12-07T04:39:20;42.67;;;38.00;;
16039;SDS011;8124;48.634;8.120;2022-12-07T04:44:24;43.45;;;37.80;;
16039;SDS011;8124;48.634;8.120;2022-12-07T04:49:29;42.40;;;37.05;;
16039;SDS011;8124;48.634;8.120;2022-12-07T04:54:32;45.13;;;39.63;;
16039;SDS011;8124;48.634;8.120;2022-12-07T04:59:35;47.05;;;39.58;;
16039;SDS011;8124;48.634;8.120;2022-12-07T05:04:47;41.83;;;37.25;;
16039;SDS011;8124;48.634;8.120;2022-12-07T05:09:50;42.08;;;37.35;;
16039;SDS011;8124;48.634;8.120;2022-12-07T05:14:53;42.63;;;37.88;;
16039;SDS011;8124;48.634;8.120;2022-12-07T05:19:57;41.92;;;36.83;;
16039;SDS011;8124;48.634;8.120;2022-12-07T05:25:01;43.95;;;37.40;;
16039;SDS011;8124;48.634;8.120;2022-12-07T05:30:04;44.22;;;37.28;;
16039;SDS011;8124;48.634;8.120;2022-12-07T05:35:10;41.15;;;36.47;;
16039;SDS011;8124;48.634;8.120;2022-12-07T05:40:14;40.72;;;36.28;;
16039;SDS011;8124;48.634;8.120;2022-12-07T05:45:18;42.22;;;37.25;;
16039;SDS011;8124;48.634;8.120;2022-12-07T05:50:22;40.15;;;35.90;;
16039;SDS011;8124;48.634;8.120;2022-12-07T05:55:34;40.17;;;35.88;;
16039;SDS011;8124;48.634;8.120;2022-12-07T06:00:36;40.88;;;36.42;;
16039;SDS011;8124;48.634;8.120;2022-12-07T06:05:41;40.53;;;36.00;;
16039;SDS011;8124;48.634;8.120;2022-12-07T06:10:44;41.67;;;36.22;;
16039;SDS011;8124;48.634;8.120;2022-12-07T06:16:08;43.08;;;37.70;;
16039;SDS011;8124;48.634;8.120;2022-12-07T06:21:12;46.07;;;41.07;;
16039;SDS011;8124;48.634;8.120;2022-12-07T06:26:16;43.35;;;37.35;;
16039;SDS011;8124;48.634;8.120;2022-12-07T06:31:19;40.17;;;35.88;;
16039;SDS011;8124;48.634;8.120;2022-12-07T06:36:23;39.55;;;35.25;;
16039;SDS011;8124;48.634;8.120;2022-12-07T06:41:27;40.45;;;36.15;;
16039;SDS011;8124;48.634;8.120;2022-12-07T06:46:30;40.45;;;36.08;;
16039;SDS011;8124;48.634;8.120;2022-12-07T06:51:34;40.28;;;35.88;;
16039;SDS011;8124;48.634;8.120;2022-12-07T06:56:42;38.10;;;34.10;;
16039;SDS011;8124;48.634;8.120;2022-12-07T07:01:45;38.78;;;34.58;;
16039;SDS011;8124;48.634;8.120;2022-12-07T07:06:49;39.08;;;34.97;;
16039;SDS011;8124;48.634;8.120;2022-12-07T07:12:00;37.45;;;33.45;;
16039;SDS011;8124;48.634;8.120;2022-12-07T07:17:03;38.47;;;34.42;;
16039;SDS011;8124;48.634;8.120;2022-12-07T07:22:07;39.22;;;34.85;;
16039;SDS011;8124;48.634;8.120;2022-12-07T07:27:10;36.95;;;33.05;;
16039;SDS011;8124;48.634;8.120;2022-12-07T07:32:13;38.63;;;34.53;;
16039;SDS011;8124;48.634;8.120;2022-12-07T07:37:17;37.38;;;33.47;;
16039;SDS011;8124;48.634;8.120;2022-12-07T07:42:22;37.55;;;33.55;;
16039;SDS011;8124;48.634;8.120;2022-12-07T07:47:25;37.75;;;33.75;;
16039;SDS011;8124;48.634;8.120;2022-12-07T07:52:29;38.35;;;34.25;;
16039;SDS011;8124;48.634;8.120;2022-12-07T07:57:33;37.55;;;33.45;;
16039;SDS011;8124;48.634;8.120;2022-12-07T08:02:36;38.13;;;34.13;;
16039;SDS011;8124;48.634;8.120;2022-12-07T08:07:40;38.83;;;34.63;;
16039;SDS011;8124;48.634;8.120;2022-12-07T08:12:44;38.33;;;34.22;;
16039;SDS011;8124;48.634;8.120;2022-12-07T08:18:05;37.47;;;33.47;;
16039;SDS011;8124;48.634;8.120;2022-12-07T08:23:10;37.33;;;33.22;;
16039;SDS011;8124;48.634;8.120;2022-12-07T08:28:13;38.25;;;34.15;;
16039;SDS011;8124;48.634;8.120;2022-12-07T08:33:16;37.47;;;33.58;;
16039;SDS011;8124;48.634;8.120;2022-12-07T08:38:20;39.83;;;34.80;;
16039;SDS011;8124;48.634;8.120;2022-12-07T08:43:29;38.65;;;34.45;;
16039;SDS011;8124;48.634;8.120;2022-12-07T08:48:32;43.97;;;35.60;;
16039;SDS011;8124;48.634;8.120;2022-12-07T08:53:39;39.53;;;34.17;;
16039;SDS011;8124;48.634;8.120;2022-12-07T08:58:42;38.28;;;34.17;;
16039;SDS011;8124;48.634;8.120;2022-12-07T09:03:46;39.75;;;35.53;;
16039;SDS011;8124;48.634;8.120;2022-12-07T09:08:51;40.45;;;36.13;;
16039;SDS011;8124;48.634;8.120;2022-12-07T09:14:00;42.28;;;36.33;;
16039;SDS011;8124;48.634;8.120;2022-12-07T09:19:02;38.47;;;34.28;;
16039;SDS011;8124;48.634;8.120;2022-12-07T09:24:07;38.63;;;34.35;;
16039;SDS011;8124;48.634;8.120;2022-12-07T09:29:10;39.00;;;34.05;;
16039;SDS011;8124;48.634;8.120;2022-12-07T09:34:13;37.40;;;33.40;;
16039;SDS011;8124;48.634;8.120;2022-12-07T09:39:17;38.63;;;33.65;;
16039;SDS011;8124;48.634;8.120;2022-12-07T09:44:21;37.40;;;33.47;;
16039;SDS011;8124;48.634;8.120;2022-12-07T09:49:27;36.97;;;33.08;;
16039;SDS011;8124;48.634;8.120;2022-12-07T09:54:33;37.22;;;33.33;;
16039;SDS011;8124;48.634;8.120;2022-12-07T09:59:40;37.47;;;33.58;;
16039;SDS011;8124;48.634;8.120;2022-12-07T10:04:43;37.08;;;33.20;;
16039;SDS011;8124;48.634;8.120;2022-12-07T10:09:48;37.50;;;33.60;;
16039;SDS011;8124;48.634;8.120;2022-12-07T10:14:54;37.55;;;33.45;;
16039;SDS011;8124;48.634;8.120;2022-12-07T10:20:11;37.35;;;33.35;;
16039;SDS011;8124;48.634;8.120;2022-12-07T10:25:22;38.05;;;34.05;;
16039;SDS011;8124;48.634;8.120;2022-12-07T10:30:28;40.80;;;34.72;;
16039;SDS011;8124;48.634;8.120;2022-12-07T10:35:31;40.03;;;33.78;;
16039;SDS011;8124;48.634;8.120;2022-12-07T10:40:36;38.00;;;33.88;;
16039;SDS011;8124;48.634;8.120;2022-12-07T10:46:02;40.85;;;34.00;;
16039;SDS011;8124;48.634;8.120;2022-12-07T10:51:20;37.65;;;33.53;;
16039;SDS011;8124;48.634;8.120;2022-12-07T10:56:45;36.97;;;32.97;;
16039;SDS011;8124;48.634;8.120;2022-12-07T11:02:02;37.55;;;33.58;;
16039;SDS011;8124;48.634;8.120;2022-12-07T11:07:25;39.30;;;33.92;;
16039;SDS011;8124;48.634;8.120;2022-12-07T11:12:44;40.10;;;35.70;;
16039;SDS011;8124;48.634;8.120;2022-12-07T11:17:59;38.53;;;34.25;;
16039;SDS011;8124;48.634;8.120;2022-12-07T11:23:11;39.22;;;34.90;;
16039;SDS011;8124;48.634;8.120;2022-12-07T11:28:25;40.58;;;35.25;;
16039;SDS011;8124;48.634;8.120;2022-12-07T11:33:41;38.60;;;34.30;;
16039;SDS011;8124;48.634;8.120;2022-12-07T11:38:49;38.30;;;34.28;;
16039;SDS011;8124;48.634;8.120;2022-12-07T11:43:58;37.63;;;33.60;;
16039;SDS011;8124;48.634;8.120;2022-12-07T11:49:07;38.05;;;33.90;;
16039;SDS011;8124;48.634;8.120;2022-12-07T11:54:15;38.17;;;34.00;;
16039;SDS011;8124;48.634;8.120;2022-12-07T11:59:25;39.47;;;34.45;;
16039;SDS011;8124;48.634;8.120;2022-12-07T12:04:38;38.85;;;34.28;;
16039;SDS011;8124;48.634;8.120;2022-12-07T12:09:49;38.35;;;34.15;;
16039;SDS011;8124;48.634;8.120;2022-12-07T12:14:59;38.00;;;33.80;;
16039;SDS011;8124;48.634;8.120;2022-12-07T12:20:18;38.33;;;34.22;;
16039;SDS011;8124;48.634;8.120;2022-12-07T12:25:26;37.75;;;33.72;;
16039;SDS011;8124;48.634;8.120;2022-12-07T12:30:34;37.60;;;33.60;;
16039;SDS011;8124;48.634;8.120;2022-12-07T12:35:38;38.42;;;34.42;;
16039;SDS011;8124;48.634;8.120;2022-12-07T12:40:42;40.15;;;36.00;;
16039;SDS011;8124;48.634;8.120;2022-12-07T12:51:37;37.97;;;33.75;;
16039;SDS011;8124;48.634;8.120;2022-12-07T12:56:42;37.00;;;33.05;;
16039;SDS011;8124;48.634;8.120;2022-12-07T13:01:54;37.85;;;33.85;;
16039;SDS011;8124;48.634;8.120;2022-12-07T13:07:00;37.78;;;33.78;;
16039;SDS011;8124;48.634;8.120;2022-12-07T13:12:03;38.33;;;34.13;;
16039;SDS011;8124;48.634;8.120;2022-12-07T13:17:44;38.80;;;34.53;;
16039;SDS011;8124;48.634;8.120;2022-12-07T13:23:00;38.47;;;34.47;;
16039;SDS011;8124;48.634;8.120;2022-12-07T13:28:08;41.05;;;36.65;;
16039;SDS011;8124;48.634;8.120;2022-12-07T13:33:17;52.10;;;39.75;;
16039;SDS011;8124;48.634;8.120;2022-12-07T13:38:25;40.50;;;35.75;;
16039;SDS011;8124;48.634;8.120;2022-12-07T13:43:30;39.13;;;34.95;;
16039;SDS011;8124;48.634;8.120;2022-12-07T13:48:34;41.67;;;37.17;;
16039;SDS011;8124;48.634;8.120;2022-12-07T13:53:49;39.35;;;35.13;;
16039;SDS011;8124;48.634;8.120;2022-12-07T13:58:53;38.45;;;34.35;;
16039;SDS011;8124;48.634;8.120;2022-12-07T14:09:29;41.67;;;37.17;;
16039;SDS011;8124;48.634;8.120;2022-12-07T14:14:32;40.90;;;36.08;;
16039;SDS011;8124;48.634;8.120;2022-12-07T14:19:44;39.65;;;35.40;;
16039;SDS011;8124;48.634;8.120;2022-12-07T14:24:59;39.78;;;35.58;;
16039;SDS011;8124;48.634;8.120;2022-12-07T14:30:17;40.47;;;36.08;;
16039;SDS011;8124;48.634;8.120;2022-12-07T14:35:21;60.75;;;46.05;;
16039;SDS011;8124;48.634;8.120;2022-12-07T14:40:25;43.50;;;38.33;;
16039;SDS011;8124;48.634;8.120;2022-12-07T14:45:30;42.88;;;37.08;;
16039;SDS011;8124;48.634;8.120;2022-12-07T14:50:34;43.30;;;37.95;;
16039;SDS011;8124;48.634;8.120;2022-12-07T14:55:41;41.85;;;36.63;;
16039;SDS011;8124;48.634;8.120;2022-12-07T15:00:44;42.28;;;37.00;;
16039;SDS011;8124;48.634;8.120;2022-12-07T15:05:48;42.63;;;37.15;;
16039;SDS011;8124;48.634;8.120;2022-12-07T15:10:52;41.50;;;36.90;;
16039;SDS011;8124;48.634;8.120;2022-12-07T15:15:55;42.55;;;36.88;;
16039;SDS011;8124;48.634;8.120;2022-12-07T15:20:58;42.22;;;37.00;;
16039;SDS011;8124;48.634;8.120;2022-12-07T15:26:02;42.88;;;37.63;;
16039;SDS011;8124;48.634;8.120;2022-12-07T15:31:10;42.40;;;37.63;;
16039;SDS011;8124;48.634;8.120;2022-12-07T15:36:34;46.22;;;38.25;;
16039;SDS011;8124;48.634;8.120;2022-12-07T15:41:38;48.78;;;39.35;;
16039;SDS011;8124;48.634;8.120;2022-12-07T15:46:41;45.38;;;38.70;;
16039;SDS011;8124;48.634;8.120;2022-12-07T15:51:44;43.63;;;38.00;;
16039;SDS011;8124;48.634;8.120;2022-12-07T15:56:49;42.80;;;37.88;;
16039;SDS011;8124;48.634;8.120;2022-12-07T16:01:52;42.42;;;37.80;;
16039;SDS011;8124;48.634;8.120;2022-12-07T16:07:01;42.45;;;37.35;;
16039;SDS011;8124;48.634;8.120;2022-12-07T16:12:06;42.30;;;36.88;;
16039;SDS011;8124;48.634;8.120;2022-12-07T16:17:09;41.38;;;36.83;;
16039;SDS011;8124;48.634;8.120;2022-12-07T16:22:13;42.45;;;37.85;;
16039;SDS011;8124;48.634;8.120;2022-12-07T16:27:17;45.60;;;38.83;;
16039;SDS011;8124;48.634;8.120;2022-12-07T16:32:20;55.17;;;43.85;;
16039;SDS011;8124;48.634;8.120;2022-12-07T16:37:24;42.63;;;37.65;;
16039;SDS011;8124;48.634;8.120;2022-12-07T16:42:28;42.22;;;37.72;;
16039;SDS011;8124;48.634;8.120;2022-12-07T16:47:36;51.05;;;44.22;;
16039;SDS011;8124;48.634;8.120;2022-12-07T16:52:39;46.70;;;40.42;;
16039;SDS011;8124;48.634;8.120;2022-12-07T16:57:43;42.40;;;37.38;;
16039;SDS011;8124;48.634;8.120;2022-12-07T17:02:46;41.78;;;37.17;;
16039;SDS011;8124;48.634;8.120;2022-12-07T17:07:49;41.05;;;36.55;;
16039;SDS011;8124;48.634;8.120;2022-12-07T17:12:58;44.03;;;38.92;;
16039;SDS011;8124;48.634;8.120;2022-12-07T17:18:02;42.50;;;36.70;;
16039;SDS011;8124;48.634;8.120;2022-12-07T17:23:21;41.00;;;36.50;;
16039;SDS011;8124;48.634;8.120;2022-12-07T17:28:27;44.28;;;38.63;;
16039;SDS011;8124;48.634;8.120;2022-12-07T17:33:30;45.10;;;37.92;;
16039;SDS011;8124;48.634;8.120;2022-12-07T17:38:33;43.63;;;37.08;;
16039;SDS011;8124;48.634;8.120;2022-12-07T17:43:38;43.00;;;36.72;;
16039;SDS011;8124;48.634;8.120;2022-12-07T17:48:41;43.08;;;37.45;;
16039;SDS011;8124;48.634;8.120;2022-12-07T17:53:47;42.38;;;37.17;;
16039;SDS011;8124;48.634;8.120;2022-12-07T17:58:52;41.38;;;36.88;;
16039;SDS011;8124;48.634;8.120;2022-12-07T18:03:54;43.42;;;38.65;;
16039;SDS011;8124;48.634;8.120;2022-12-07T18:08:58;48.38;;;40.05;;
16039;SDS011;8124;48.634;8.120;2022-12-07T18:14:02;49.35;;;41.53;;
16039;SDS011;8124;48.634;8.120;2022-12-07T18:19:07;48.53;;;42.13;;
16039;SDS011;8124;48.634;8.120;2022-12-07T18:24:14;46.08;;;38.78;;
16039;SDS011;8124;48.634;8.120;2022-12-07T18:29:20;43.25;;;37.75;;
16039;SDS011;8124;48.634;8.120;2022-12-07T18:34:23;52.88;;;42.35;;
16039;SDS011;8124;48.634;8.120;2022-12-07T18:39:28;44.50;;;38.58;;
16039;SDS011;8124;48.634;8.120;2022-12-07T18:44:42;53.65;;;41.80;;
16039;SDS011;8124;48.634;8.120;2022-12-07T18:49:48;47.65;;;38.78;;
16039;SDS011;8124;48.634;8.120;2022-12-07T18:59:58;41.88;;;37.28;;
16039;SDS011;8124;48.634;8.120;2022-12-07T19:05:01;42.80;;;37.13;;
16039;SDS011;8124;48.634;8.120;2022-12-07T19:10:05;40.45;;;35.85;;
16039;SDS011;8124;48.634;8.120;2022-12-07T19:15:18;42.08;;;36.92;;
16039;SDS011;8124;48.634;8.120;2022-12-07T19:20:21;40.17;;;35.88;;
16039;SDS011;8124;48.634;8.120;2022-12-07T19:25:24;41.65;;;36.33;;
16039;SDS011;8124;48.634;8.120;2022-12-07T19:35:50;42.08;;;35.83;;
16039;SDS011;8124;48.634;8.120;2022-12-07T19:40:53;41.22;;;36.08;;
16039;SDS011;8124;48.634;8.120;2022-12-07T19:46:05;42.40;;;36.53;;
16039;SDS011;8124;48.634;8.120;2022-12-07T19:51:09;40.55;;;36.15;;
16039;SDS011;8124;48.634;8.120;2022-12-07T19:56:13;39.30;;;35.03;;
16039;SDS011;8124;48.634;8.120;2022-12-07T20:01:27;42.42;;;37.08;;
16039;SDS011;8124;48.634;8.120;2022-12-07T20:06:31;41.92;;;37.28;;
16039;SDS011;8124;48.634;8.120;2022-12-07T20:11:34;44.95;;;38.13;;
16039;SDS011;8124;48.634;8.120;2022-12-07T20:16:56;42.53;;;37.20;;
16039;SDS011;8124;48.634;8.120;2022-12-07T20:21:59;42.70;;;37.15;;
16039;SDS011;8124;48.634;8.120;2022-12-07T20:27:10;42.72;;;37.38;;
16039;SDS011;8124;48.634;8.120;2022-12-07T20:32:15;40.72;;;36.28;;
16039;SDS011;8124;48.634;8.120;2022-12-07T20:37:18;41.95;;;36.47;;
16039;SDS011;8124;48.634;8.120;2022-12-07T20:42:23;43.13;;;38.33;;
16039;SDS011;8124;48.634;8.120;2022-12-07T20:47:39;40.97;;;36.22;;
16039;SDS011;8124;48.634;8.120;2022-12-07T20:52:42;41.58;;;36.70;;
16039;SDS011;8124;48.634;8.120;2022-12-07T20:57:45;39.13;;;34.80;;
16039;SDS011;8124;48.634;8.120;2022-12-07T21:02:49;38.45;;;34.25;;
16039;SDS011;8124;48.634;8.120;2022-12-07T21:07:53;38.35;;;34.15;;
16039;SDS011;8124;48.634;8.120;2022-12-07T21:12:56;39.55;;;35.10;;
16039;SDS011;8124;48.634;8.120;2022-12-07T21:18:00;46.00;;;39.10;;
16039;SDS011;8124;48.634;8.120;2022-12-07T21:23:07;41.42;;;37.05;;
16039;SDS011;8124;48.634;8.120;2022-12-07T21:28:10;43.00;;;37.05;;
16039;SDS011;8124;48.634;8.120;2022-12-07T21:33:15;40.55;;;35.78;;
16039;SDS011;8124;48.634;8.120;2022-12-07T21:38:18;38.15;;;34.13;;
16039;SDS011;8124;48.634;8.120;2022-12-07T21:43:21;38.22;;;34.13;;
16039;SDS011;8124;48.634;8.120;2022-12-07T21:48:25;37.15;;;33.25;;
16039;SDS011;8124;48.634;8.120;2022-12-07T21:53:28;37.42;;;33.42;;
16039;SDS011;8124;48.634;8.120;2022-12-07T21:58:31;39.50;;;35.25;;
16039;SDS011;8124;48.634;8.120;2022-12-07T22:03:35;38.65;;;34.53;;
16039;SDS011;8124;48.634;8.120;2022-12-07T22:08:38;38.13;;;34.03;;
16039;SDS011;8124;48.634;8.120;2022-12-07T22:13:42;38.17;;;34.05;;
16039;SDS011;8124;48.634;8.120;2022-12-07T22:19:11;38.05;;;33.95;;
16039;SDS011;8124;48.634;8.120;2022-12-07T22:24:14;36.73;;;32.83;;
16039;SDS011;8124;48.634;8.120;2022-12-07T22:29:17;36.97;;;33.08;;
16039;SDS011;8124;48.634;8.120;2022-12-07T22:34:22;37.35;;;32.72;;
16039;SDS011;8124;48.634;8.120;2022-12-07T22:39:25;36.15;;;32.35;;
16039;SDS011;8124;48.634;8.120;2022-12-07T22:44:28;38.72;;;32.95;;
16039;SDS011;8124;48.634;8.120;2022-12-07T22:49:32;37.03;;;33.03;;
16039;SDS011;8124;48.634;8.120;2022-12-07T22:54:35;36.30;;;32.50;;
16039;SDS011;8124;48.634;8.120;2022-12-07T22:59:38;36.40;;;32.60;;
16039;SDS011;8124;48.634;8.120;2022-12-07T23:04:43;36.35;;;32.55;;
16039;SDS011;8124;48.634;8.120;2022-12-07T23:09:46;36.80;;;32.90;;
16039;SDS011;8124;48.634;8.120;2022-12-07T23:14:49;37.65;;;33.63;;
16039;SDS011;8124;48.634;8.120;2022-12-07T23:19:55;37.95;;;33.90;;
16039;SDS011;8124;48.634;8.120;2022-12-07T23:24:58;39.95;;;35.33;;
16039;SDS011;8124;48.634;8.120;2022-12-07T23:30:01;39.43;;;35.13;;
16039;SDS011;8124;48.634;8.120;2022-12-07T23:35:07;40.57;;;35.73;;
16039;SDS011;8124;48.634;8.120;2022-12-07T23:40:10;40.28;;;35.78;;
16039;SDS011;8124;48.634;8.120;2022-12-07T23:45:13;44.77;;;36.20;;
16039;SDS011;8124;48.634;8.120;2022-12-07T23:50:18;38.57;;;34.43;;
16039;SDS011;8124;48.634;8.120;2022-12-07T23:55:21;38.23;;;34.00;;
